Time;durP1;ratioP1;P1;durP2;ratioP2;P2;SDS_P1;SDS_P2;PMS_P1;PMS_P2;Temp;Humidity;BMP_temperature;BMP_pressure;BME280_temperature;BME280_humidity;BME280_pressure;Samples;Min_cycle;Max_cycle;Signal;HPM_P1;HPM_P2
2022/01/11 00:01:40;;;;;;;;;;;6.80;55.20;;;;;;5072891;28;19908;-64
2022/01/11 00:04:06;;;;;;;;;;;6.80;55.50;;;;;;5072592;28;20388;-63
2022/01/11 00:06:41;;;;;;;;;;;6.70;55.70;;;;;;5072614;28;20002;-69
2022/01/11 00:09:18;;;;;;;;;;;6.80;55.50;;;;;;5072544;28;19915;-66
2022/01/11 00:11:45;;;;;;;;;;;6.70;55.50;;;;;;5072750;28;19908;-64
2022/01/11 00:14:10;;;;;;;;;;;6.70;55.70;;;;;;5072664;28;19913;-66
2022/01/11 00:16:36;;;;;;;;;;;6.70;55.70;;;;;;5072547;28;19918;-67
2022/01/11 00:19:05;;;;;;;;;;;6.50;56.00;;;;;;5072725;28;19912;-70
2022/01/11 00:21:32;;;;;;;;;;;6.70;55.90;;;;;;5072781;28;20392;-63
2022/01/11 00:26:52;;;;;;;;;;;6.70;55.70;;;;;;5050192;28;19921;-64
2022/01/11 00:29:17;;;;;;;;;;;6.60;56.00;;;;;;5072517;28;19912;-62
2022/01/11 00:31:45;;;;;;;;;;;6.60;55.90;;;;;;5072286;28;19961;-63
2022/01/11 00:34:13;;;;;;;;;;;6.50;56.30;;;;;;5072357;28;19913;-62
2022/01/11 00:36:42;;;;;;;;;;;6.50;56.30;;;;;;5072592;28;19919;-68
2022/01/11 00:39:08;;;;;;;;;;;6.50;56.40;;;;;;5075936;28;19912;-64
2022/01/11 00:41:36;;;;;;;;;;;6.40;56.30;;;;;;5076302;28;19912;-63
2022/01/11 00:44:01;;;;;;;;;;;6.40;56.20;;;;;;5075786;28;20001;-61
2022/01/11 00:46:27;;;;;;;;;;;6.50;55.90;;;;;;5075967;28;19909;-63
2022/01/11 00:48:52;;;;;;;;;;;6.40;56.30;;;;;;5076264;28;19908;-62
2022/01/11 00:51:18;;;;;;;;;;;6.40;56.40;;;;;;5075866;28;19919;-62
2022/01/11 00:53:43;;;;;;;;;;;6.40;56.80;;;;;;5075804;28;19946;-62
2022/01/11 00:56:09;;;;;;;;;;;6.50;56.60;;;;;;5075580;28;19947;-63
2022/01/11 00:58:35;;;;;;;;;;;6.40;56.50;;;;;;5075883;28;19934;-62
2022/01/11 01:01:00;;;;;;;;;;;6.40;56.40;;;;;;5075663;28;20003;-62
2022/01/11 01:03:26;;;;;;;;;;;6.50;56.20;;;;;;5075518;28;20375;-63
2022/01/11 01:05:52;;;;;;;;;;;6.60;56.10;;;;;;5075756;28;19913;-63
2022/01/11 01:08:17;;;;;;;;;;;6.50;55.90;;;;;;5075621;28;19919;-64
2022/01/11 01:10:46;;;;;;;;;;;6.40;56.30;;;;;;5075724;28;19909;-65
2022/01/11 01:13:14;;;;;;;;;;;6.40;56.40;;;;;;5075303;28;19913;-64
2022/01/11 01:15:40;;;;;;;;;;;6.40;56.50;;;;;;5075120;28;19921;-62
2022/01/11 01:18:06;;;;;;;;;;;6.30;56.60;;;;;;5075424;28;19958;-62
2022/01/11 01:20:31;;;;;;;;;;;6.40;56.60;;;;;;5075393;28;20402;-63
2022/01/11 01:22:57;;;;;;;;;;;6.40;56.50;;;;;;5075425;28;19909;-62
2022/01/11 01:25:23;;;;;;;;;;;6.40;56.20;;;;;;5075027;28;19931;-63
2022/01/11 01:27:49;;;;;;;;;;;6.30;56.50;;;;;;5075157;28;19983;-64
2022/01/11 01:30:17;;;;;;;;;;;6.40;56.20;;;;;;5075076;28;19919;-63
2022/01/11 01:32:43;;;;;;;;;;;6.40;56.80;;;;;;5074935;28;20382;-62
2022/01/11 01:35:09;;;;;;;;;;;6.40;56.00;;;;;;5074987;28;19963;-62
2022/01/11 01:37:35;;;;;;;;;;;6.30;56.00;;;;;;5074920;28;20033;-66
2022/01/11 01:40:00;;;;;;;;;;;6.30;55.90;;;;;;5074521;28;20379;-64
2022/01/11 01:42:29;;;;;;;;;;;6.30;55.90;;;;;;5074742;28;19912;-63
2022/01/11 01:44:55;;;;;;;;;;;6.30;56.10;;;;;;5074589;28;20373;-63
2022/01/11 01:47:20;;;;;;;;;;;6.30;56.00;;;;;;5074629;28;19951;-64
2022/01/11 01:49:46;;;;;;;;;;;6.30;55.60;;;;;;5073508;28;19993;-63
2022/01/11 01:52:14;;;;;;;;;;;6.40;55.60;;;;;;5074493;28;20387;-62
2022/01/11 01:54:39;;;;;;;;;;;6.40;55.30;;;;;;5074819;28;19996;-63
2022/01/11 01:57:05;;;;;;;;;;;6.40;55.20;;;;;;5074276;28;20007;-64
2022/01/11 01:59:31;;;;;;;;;;;6.40;54.90;;;;;;5074198;28;19908;-62
2022/01/11 02:01:57;;;;;;;;;;;6.40;55.10;;;;;;5074329;28;20275;-61
2022/01/11 02:04:23;;;;;;;;;;;6.40;55.10;;;;;;5074212;28;19912;-62
2022/01/11 02:06:49;;;;;;;;;;;6.40;55.10;;;;;;5074267;28;19915;-63
2022/01/11 02:09:15;;;;;;;;;;;6.30;55.20;;;;;;5074158;28;20386;-62
2022/01/11 02:11:41;;;;;;;;;;;6.20;55.90;;;;;;5074106;28;19919;-63
2022/01/11 02:14:07;;;;;;;;;;;6.20;55.10;;;;;;5074315;28;19995;-66
2022/01/11 02:16:33;;;;;;;;;;;6.20;55.00;;;;;;5073993;28;20364;-62
2022/01/11 02:18:58;;;;;;;;;;;6.10;55.20;;;;;;5073912;28;19912;-62
2022/01/11 02:21:24;;;;;;;;;;;6.10;55.40;;;;;;5073953;28;19961;-63
2022/01/11 02:23:52;;;;;;;;;;;6.20;55.40;;;;;;5073799;28;20383;-62
2022/01/11 02:26:18;;;;;;;;;;;6.30;55.10;;;;;;5073764;28;19908;-63
2022/01/11 02:28:43;;;;;;;;;;;6.30;54.90;;;;;;5073816;28;20268;-62
2022/01/11 02:31:12;;;;;;;;;;;6.20;54.80;;;;;;5073961;28;19908;-62
2022/01/11 02:33:42;;;;;;;;;;;6.20;55.00;;;;;;5073761;28;19915;-63
2022/01/11 02:36:13;;;;;;;;;;;6.10;55.10;;;;;;5073575;28;20277;-62
2022/01/11 02:38:38;;;;;;;;;;;6.10;54.90;;;;;;5073740;28;19954;-62
2022/01/11 02:41:04;;;;;;;;;;;6.00;55.20;;;;;;5073532;28;19909;-64
2022/01/11 02:43:30;;;;;;;;;;;6.00;55.00;;;;;;5073382;28;20319;-62
2022/01/11 02:45:58;;;;;;;;;;;6.00;55.10;;;;;;5073508;28;20271;-63
2022/01/11 02:48:24;;;;;;;;;;;6.00;54.90;;;;;;5073706;28;19995;-62
2022/01/11 02:50:49;;;;;;;;;;;6.10;54.70;;;;;;5073562;28;19974;-69
2022/01/11 02:53:15;;;;;;;;;;;6.20;54.50;;;;;;5073057;28;19953;-69
2022/01/11 02:55:43;;;;;;;;;;;6.20;54.60;;;;;;5055620;28;20065;-70
2022/01/11 02:58:09;;;;;;;;;;;6.10;54.40;;;;;;5073294;28;19916;-62
2022/01/11 03:00:34;;;;;;;;;;;6.10;54.50;;;;;;5073032;28;19953;-61
2022/01/11 03:03:14;;;;;;;;;;;6.10;54.30;;;;;;5073350;28;19995;-65
2022/01/11 03:05:51;;;;;;;;;;;6.10;54.00;;;;;;5073222;28;19962;-62
2022/01/11 03:08:17;;;;;;;;;;;6.10;54.10;;;;;;5073315;28;19961;-62
2022/01/11 03:10:43;;;;;;;;;;;6.10;54.10;;;;;;5072925;28;19908;-63
2022/01/11 03:13:09;;;;;;;;;;;6.10;54.00;;;;;;5073078;28;20026;-63
2022/01/11 03:15:36;;;;;;;;;;;6.00;54.20;;;;;;5073005;28;19990;-62
2022/01/11 03:18:01;;;;;;;;;;;6.00;54.10;;;;;;5073120;28;20380;-67
2022/01/11 03:20:27;;;;;;;;;;;6.00;54.10;;;;;;5072977;28;20025;-62
2022/01/11 03:22:52;;;;;;;;;;;6.00;54.30;;;;;;5072808;28;19920;-63
2022/01/11 03:25:18;;;;;;;;;;;6.00;54.00;;;;;;5073042;28;19988;-62
2022/01/11 03:27:44;;;;;;;;;;;6.00;53.80;;;;;;5072899;28;20007;-62
2022/01/11 03:30:10;;;;;;;;;;;6.00;54.20;;;;;;5072988;28;19915;-64
2022/01/11 03:32:36;;;;;;;;;;;6.00;53.80;;;;;;5073096;28;20003;-64
2022/01/11 03:35:02;;;;;;;;;;;6.00;53.80;;;;;;5054660;28;19945;-61
2022/01/11 03:37:28;;;;;;;;;;;6.00;53.80;;;;;;5073043;28;19948;-63
2022/01/11 03:39:53;;;;;;;;;;;6.10;53.60;;;;;;5072977;28;20332;-64
2022/01/11 03:42:19;;;;;;;;;;;6.10;53.30;;;;;;5072890;28;19923;-67
2022/01/11 03:44:45;;;;;;;;;;;6.10;53.30;;;;;;5072806;28;19970;-63
2022/01/11 03:47:10;;;;;;;;;;;6.00;53.50;;;;;;5072639;28;19915;-63
2022/01/11 03:49:36;;;;;;;;;;;6.00;53.50;;;;;;5072855;28;20334;-65
2022/01/11 03:52:02;;;;;;;;;;;6.00;53.40;;;;;;5072841;28;19909;-64
2022/01/11 03:54:42;;;;;;;;;;;6.10;52.90;;;;;;5072802;28;19920;-62
2022/01/11 03:57:08;;;;;;;;;;;6.00;52.80;;;;;;5072562;28;19908;-64
2022/01/11 03:59:33;;;;;;;;;;;6.00;52.80;;;;;;5072821;28;19919;-64
2022/01/11 04:01:59;;;;;;;;;;;6.00;52.70;;;;;;5055198;28;19958;-63
2022/01/11 04:04:26;;;;;;;;;;;6.00;52.70;;;;;;5072484;28;19916;-62
2022/01/11 04:06:51;;;;;;;;;;;6.10;52.70;;;;;;5072939;28;19934;-62
2022/01/11 04:09:17;;;;;;;;;;;6.00;52.50;;;;;;5072737;28;20379;-64
2022/01/11 04:11:43;;;;;;;;;;;5.90;52.50;;;;;;5072451;28;20018;-64
2022/01/11 04:14:08;;;;;;;;;;;5.90;52.20;;;;;;5076108;28;19913;-64
2022/01/11 04:16:34;;;;;;;;;;;5.90;52.10;;;;;;5076293;28;19931;-63
2022/01/11 04:18:59;;;;;;;;;;;6.00;52.10;;;;;;5076171;28;19951;-63
2022/01/11 04:21:25;;;;;;;;;;;6.00;52.10;;;;;;5076306;28;19908;-63
2022/01/11 04:23:51;;;;;;;;;;;6.00;51.70;;;;;;5075954;28;19909;-62
2022/01/11 04:26:17;;;;;;;;;;;6.00;51.70;;;;;;5076183;28;19909;-68
2022/01/11 04:28:42;;;;;;;;;;;6.00;51.50;;;;;;5076143;28;19916;-62
2022/01/11 04:31:08;;;;;;;;;;;6.00;51.50;;;;;;5075979;28;20368;-64
2022/01/11 04:33:33;;;;;;;;;;;6.00;51.00;;;;;;5075899;28;19909;-64
2022/01/11 04:35:59;;;;;;;;;;;6.00;51.00;;;;;;5075839;28;19968;-62
2022/01/11 04:38:26;;;;;;;;;;;6.00;51.30;;;;;;5076091;28;19909;-62
2022/01/11 04:40:51;;;;;;;;;;;6.10;50.80;;;;;;5075836;28;19912;-63
2022/01/11 04:43:17;;;;;;;;;;;6.10;50.30;;;;;;5075537;28;19924;-62
2022/01/11 04:45:43;;;;;;;;;;;6.10;50.20;;;;;;5075917;28;20003;-68
2022/01/11 04:48:09;;;;;;;;;;;6.20;49.90;;;;;;5075593;28;20329;-71
2022/01/11 04:50:36;;;;;;;;;;;6.20;49.90;;;;;;5075615;28;19909;-71
2022/01/11 04:53:01;;;;;;;;;;;6.30;49.60;;;;;;5075615;28;19952;-67
2022/01/11 04:55:27;;;;;;;;;;;6.30;49.10;;;;;;5075550;28;19971;-68
2022/01/11 04:57:53;;;;;;;;;;;6.30;48.90;;;;;;5075675;28;19909;-68
2022/01/11 05:00:19;;;;;;;;;;;6.20;48.50;;;;;;5075400;28;19916;-70
2022/01/11 05:02:45;;;;;;;;;;;6.30;48.80;;;;;;5075499;28;20689;-70
2022/01/11 05:05:11;;;;;;;;;;;6.30;48.40;;;;;;5075429;28;19916;-70
2022/01/11 05:07:37;;;;;;;;;;;6.30;48.40;;;;;;5075269;28;19908;-68
2022/01/11 05:10:04;;;;;;;;;;;6.30;48.30;;;;;;5075582;28;19946;-70
2022/01/11 05:12:30;;;;;;;;;;;6.20;48.70;;;;;;5075181;28;19909;-70
2022/01/11 05:14:55;;;;;;;;;;;6.20;47.80;;;;;;5075138;28;19924;-71
2022/01/11 05:17:21;;;;;;;;;;;6.10;48.00;;;;;;5075047;28;19953;-62
2022/01/11 05:19:46;;;;;;;;;;;6.10;48.60;;;;;;5075241;28;19908;-63
2022/01/11 05:22:12;;;;;;;;;;;6.10;48.20;;;;;;5075295;28;19943;-62
2022/01/11 05:24:37;;;;;;;;;;;6.10;47.90;;;;;;5074838;28;19909;-62
2022/01/11 05:27:03;;;;;;;;;;;6.10;48.10;;;;;;5074999;28;19915;-63
2022/01/11 05:29:31;;;;;;;;;;;6.10;48.00;;;;;;5075047;28;19909;-62
2022/01/11 05:31:58;;;;;;;;;;;6.00;48.10;;;;;;5074947;28;19940;-63
2022/01/11 05:34:24;;;;;;;;;;;6.10;47.80;;;;;;5074830;28;19912;-61
2022/01/11 05:36:50;;;;;;;;;;;6.20;47.20;;;;;;5074956;28;19913;-65
2022/01/11 05:39:15;;;;;;;;;;;6.20;47.30;;;;;;5074659;28;19942;-63
2022/01/11 05:41:41;;;;;;;;;;;6.10;46.80;;;;;;5075100;28;20383;-65
2022/01/11 05:44:06;;;;;;;;;;;6.10;47.10;;;;;;5074349;28;19927;-62
2022/01/11 05:46:32;;;;;;;;;;;6.10;46.70;;;;;;5074920;28;19913;-65
2022/01/11 05:48:58;;;;;;;;;;;6.20;47.00;;;;;;5074467;28;19912;-62
2022/01/11 05:51:25;;;;;;;;;;;6.30;45.90;;;;;;5074361;28;19923;-63
2022/01/11 05:53:50;;;;;;;;;;;6.30;45.90;;;;;;5074592;28;19908;-64
2022/01/11 05:56:16;;;;;;;;;;;6.30;45.70;;;;;;5074375;28;20390;-62
2022/01/11 05:58:41;;;;;;;;;;;6.30;45.80;;;;;;5074485;28;20017;-62
2022/01/11 06:01:07;;;;;;;;;;;6.20;46.20;;;;;;5074348;28;19912;-64
2022/01/11 06:03:32;;;;;;;;;;;6.10;46.90;;;;;;5074268;28;20280;-65
2022/01/11 06:05:58;;;;;;;;;;;6.10;47.40;;;;;;5074612;28;19909;-63
2022/01/11 06:08:23;;;;;;;;;;;6.00;47.60;;;;;;5074282;28;19908;-62
2022/01/11 06:10:49;;;;;;;;;;;6.00;47.40;;;;;;5074216;28;19908;-63
2022/01/11 06:13:15;;;;;;;;;;;6.00;47.30;;;;;;5074169;28;19921;-63
2022/01/11 06:15:40;;;;;;;;;;;6.00;47.30;;;;;;5074010;28;19917;-63
2022/01/11 06:18:06;;;;;;;;;;;5.90;48.30;;;;;;5074247;28;19999;-62
2022/01/11 06:20:32;;;;;;;;;;;5.90;47.90;;;;;;5074022;28;19912;-67
2022/01/11 06:22:58;;;;;;;;;;;5.80;48.40;;;;;;5073796;28;20011;-62
2022/01/11 06:25:23;;;;;;;;;;;5.80;48.80;;;;;;5074109;28;19908;-64
2022/01/11 06:27:49;;;;;;;;;;;5.80;48.80;;;;;;5073951;28;19908;-63
2022/01/11 06:30:15;;;;;;;;;;;5.80;48.70;;;;;;5073951;28;19964;-63
2022/01/11 06:32:43;;;;;;;;;;;5.90;48.40;;;;;;5074048;28;19951;-63
2022/01/11 06:35:09;;;;;;;;;;;6.00;48.30;;;;;;5072953;28;19974;-63
2022/01/11 06:37:35;;;;;;;;;;;5.90;48.30;;;;;;5073922;28;19909;-62
2022/01/11 06:40:03;;;;;;;;;;;6.00;48.40;;;;;;5073504;28;19915;-62
2022/01/11 06:42:29;;;;;;;;;;;6.00;48.50;;;;;;5073674;28;20002;-65
2022/01/11 06:44:54;;;;;;;;;;;5.90;48.90;;;;;;5073657;28;20334;-62
2022/01/11 06:47:20;;;;;;;;;;;5.80;49.20;;;;;;5073259;28;19908;-63
2022/01/11 06:49:45;;;;;;;;;;;5.80;49.50;;;;;;5073640;28;20284;-65
2022/01/11 06:52:11;;;;;;;;;;;5.80;50.30;;;;;;5073531;28;19908;-70
2022/01/11 06:54:37;;;;;;;;;;;5.80;49.60;;;;;;5073521;28;19966;-68
2022/01/11 06:57:02;;;;;;;;;;;5.80;49.80;;;;;;5073387;28;19913;-67
2022/01/11 06:59:28;;;;;;;;;;;5.90;49.80;;;;;;5073327;28;20339;-65
2022/01/11 07:01:53;;;;;;;;;;;5.90;49.40;;;;;;5073333;28;19950;-64
2022/01/11 07:04:19;;;;;;;;;;;5.80;49.70;;;;;;5073130;28;20332;-63
2022/01/11 07:06:44;;;;;;;;;;;5.70;49.90;;;;;;5073000;28;19916;-66
2022/01/11 07:09:10;;;;;;;;;;;6.10;57.10;;;;;;5073518;28;19908;-64
2022/01/11 07:11:35;;;;;;;;;;;6.60;53.10;;;;;;5054589;28;19954;-67
2022/01/11 07:14:03;;;;;;;;;;;6.50;50.00;;;;;;5072819;28;20470;-61
2022/01/11 07:16:29;;;;;;;;;;;6.30;50.10;;;;;;5073347;28;19912;-62
2022/01/11 07:18:55;;;;;;;;;;;6.30;50.40;;;;;;5073914;28;19938;-66
2022/01/11 07:21:20;;;;;;;;;;;6.50;49.60;;;;;;5074135;28;20010;-63
2022/01/11 07:23:46;;;;;;;;;;;6.60;51.90;;;;;;5072673;28;20287;-63
2022/01/11 07:26:11;;;;;;;;;;;6.70;49.70;;;;;;5072899;28;19917;-68
2022/01/11 07:28:37;;;;;;;;;;;6.40;49.80;;;;;;5072956;28;19908;-62
2022/01/11 07:31:03;;;;;;;;;;;6.60;50.50;;;;;;5072730;28;19909;-63
2022/01/11 07:33:28;;;;;;;;;;;6.40;49.40;;;;;;5072735;28;20024;-70
2022/01/11 07:35:54;;;;;;;;;;;6.10;49.20;;;;;;5072842;28;19924;-69
2022/01/11 07:38:20;;;;;;;;;;;5.80;50.40;;;;;;5072597;28;19908;-70
2022/01/11 07:40:45;;;;;;;;;;;5.60;50.40;;;;;;5054540;28;19915;-70
2022/01/11 07:43:11;;;;;;;;;;;5.50;50.80;;;;;;5072360;28;19931;-69
2022/01/11 07:45:36;;;;;;;;;;;5.60;50.60;;;;;;5072858;28;19951;-62
2022/01/11 07:48:02;;;;;;;;;;;5.60;50.50;;;;;;5076735;28;19913;-65
2022/01/11 07:50:28;;;;;;;;;;;5.70;50.50;;;;;;5076670;28;20217;-63
2022/01/11 07:52:53;;;;;;;;;;;5.90;50.10;;;;;;5076978;28;20006;-63
2022/01/11 07:55:19;;;;;;;;;;;5.90;49.50;;;;;;5076432;28;19917;-67
2022/01/11 07:57:45;;;;;;;;;;;6.00;49.10;;;;;;5076758;28;19917;-63
2022/01/11 08:00:11;;;;;;;;;;;6.10;49.10;;;;;;5076725;28;19915;-65
2022/01/11 08:02:37;;;;;;;;;;;6.10;48.90;;;;;;5076696;28;19912;-65
2022/01/11 08:05:04;;;;;;;;;;;6.30;48.60;;;;;;5076690;28;20288;-61
2022/01/11 08:07:30;;;;;;;;;;;6.20;48.60;;;;;;5076567;28;20456;-63
2022/01/11 08:09:56;;;;;;;;;;;6.20;48.80;;;;;;5076631;28;19909;-63
2022/01/11 08:12:22;;;;;;;;;;;6.20;48.60;;;;;;5066764;28;19919;-61
2022/01/11 08:14:48;;;;;;;;;;;6.30;48.20;;;;;;5056048;28;19978;-69
2022/01/11 08:17:14;;;;;;;;;;;6.30;48.10;;;;;;5056432;28;19962;-71
2022/01/11 08:19:40;;;;;;;;;;;6.30;48.20;;;;;;5055714;28;19970;-66
2022/01/11 08:22:06;;;;;;;;;;;6.30;48.10;;;;;;5055940;28;20361;-69
2022/01/11 08:24:32;;;;;;;;;;;6.50;48.00;;;;;;5056104;28;20269;-61
2022/01/11 08:26:57;;;;;;;;;;;6.50;47.80;;;;;;5056212;28;19913;-62
2022/01/11 08:29:23;;;;;;;;;;;6.40;47.70;;;;;;5056484;28;20399;-69
2022/01/11 08:31:49;;;;;;;;;;;6.40;48.20;;;;;;5056601;28;19909;-74
2022/01/11 08:34:15;;;;;;;;;;;6.40;48.20;;;;;;5056169;28;19919;-76
2022/01/11 08:36:41;;;;;;;;;;;6.40;48.60;;;;;;5056088;28;19912;-73
2022/01/11 08:39:08;;;;;;;;;;;6.50;48.60;;;;;;5055374;28;19909;-72
2022/01/11 08:41:33;;;;;;;;;;;6.60;48.20;;;;;;5038229;28;19913;-74
2022/01/11 08:43:59;;;;;;;;;;;6.50;48.60;;;;;;5055447;28;20023;-75
2022/01/11 08:46:24;;;;;;;;;;;6.50;48.70;;;;;;5062004;28;19912;-70
2022/01/11 08:48:50;;;;;;;;;;;6.40;49.40;;;;;;5053552;28;20376;-80
2022/01/11 08:51:16;;;;;;;;;;;6.40;49.00;;;;;;5075275;28;19908;-79
2022/01/11 08:53:41;;;;;;;;;;;6.40;49.20;;;;;;5075177;28;19953;-79
2022/01/11 08:56:08;;;;;;;;;;;6.40;49.10;;;;;;5069197;28;20292;-74
2022/01/11 08:58:34;;;;;;;;;;;6.40;49.00;;;;;;5058086;28;19916;-79
2022/01/11 09:00:59;;;;;;;;;;;6.50;49.00;;;;;;5053130;28;19909;-78
2022/01/11 09:03:25;;;;;;;;;;;6.60;48.60;;;;;;5056318;28;19912;-74
2022/01/11 09:05:51;;;;;;;;;;;6.80;48.30;;;;;;5056923;28;19909;-78
2022/01/11 09:08:17;;;;;;;;;;;6.70;48.10;;;;;;5056144;28;19909;-72
2022/01/11 09:10:42;;;;;;;;;;;6.70;48.20;;;;;;5056235;28;19920;-77
2022/01/11 09:13:08;;;;;;;;;;;6.80;47.70;;;;;;5056526;28;19931;-73
2022/01/11 09:15:34;;;;;;;;;;;6.70;48.70;;;;;;5055871;28;20273;-61
2022/01/11 09:17:59;;;;;;;;;;;6.70;48.20;;;;;;5037796;28;19970;-61
2022/01/11 09:20:25;;;;;;;;;;;6.80;47.90;;;;;;5055577;28;19912;-64
2022/01/11 09:22:51;;;;;;;;;;;6.80;47.40;;;;;;5056293;28;19947;-77
2022/01/11 09:25:17;;;;;;;;;;;6.90;47.80;;;;;;5055255;28;20309;-69
2022/01/11 09:27:43;;;;;;;;;;;6.80;47.90;;;;;;5055710;28;19935;-68
2022/01/11 09:30:10;;;;;;;;;;;6.80;47.60;;;;;;5055301;28;19909;-77
2022/01/11 09:32:36;;;;;;;;;;;6.70;48.40;;;;;;5055423;28;19913;-68
2022/01/11 09:35:02;;;;;;;;;;;6.70;48.50;;;;;;5054851;28;19981;-74
2022/01/11 09:37:28;;;;;;;;;;;6.90;48.30;;;;;;5054829;28;20010;-70
2022/01/11 09:39:54;;;;;;;;;;;6.90;48.10;;;;;;5054521;28;20582;-71
2022/01/11 09:42:19;;;;;;;;;;;7.00;48.50;;;;;;5036674;28;20272;-76
2022/01/11 09:44:47;;;;;;;;;;;7.00;47.60;;;;;;5051958;28;19917;-61
2022/01/11 09:47:13;;;;;;;;;;;7.00;47.70;;;;;;5054842;28;19913;-72
2022/01/11 09:49:39;;;;;;;;;;;6.80;48.00;;;;;;5054836;28;20407;-74
2022/01/11 09:52:07;;;;;;;;;;;7.00;48.20;;;;;;5062678;28;20384;-79
2022/01/11 09:54:36;;;;;;;;;;;6.90;48.00;;;;;;5046877;28;19920;-72
2022/01/11 09:57:03;;;;;;;;;;;7.00;48.30;;;;;;5063210;28;19984;-66
2022/01/11 09:59:30;;;;;;;;;;;6.90;47.50;;;;;;5071770;28;19924;-74
2022/01/11 10:01:55;;;;;;;;;;;6.90;47.60;;;;;;5072122;28;19916;-73
2022/01/11 10:04:29;;;;;;;;;;;7.00;47.80;;;;;;5068077;28;19980;-72
2022/01/11 10:06:59;;;;;;;;;;;7.10;47.70;;;;;;5071832;28;20003;-70
2022/01/11 10:09:26;;;;;;;;;;;7.10;47.10;;;;;;5055896;28;19909;-72
2022/01/11 10:11:52;;;;;;;;;;;7.20;47.30;;;;;;5055018;28;19956;-73
2022/01/11 10:14:24;;;;;;;;;;;7.30;47.10;;;;;;5054591;28;19987;-72
2022/01/11 10:17:02;;;;;;;;;;;7.20;47.00;;;;;;5054580;28;20011;-73
2022/01/11 10:19:27;;;;;;;;;;;7.20;47.40;;;;;;5054828;28;19974;-68
2022/01/11 10:21:54;;;;;;;;;;;7.20;47.90;;;;;;5054676;28;20368;-71
2022/01/11 10:24:26;;;;;;;;;;;7.30;47.40;;;;;;5054654;28;19909;-74
2022/01/11 10:26:53;;;;;;;;;;;7.30;46.90;;;;;;5054417;28;19991;-73
2022/01/11 10:29:22;;;;;;;;;;;7.40;46.50;;;;;;5054487;28;19917;-70
2022/01/11 10:31:58;;;;;;;;;;;7.60;46.40;;;;;;5111374;27;19920;-72
2022/01/11 10:34:34;;;;;;;;;;;7.50;46.20;;;;;;5111165;28;19923;-71
2022/01/11 10:37:01;;;;;;;;;;;7.50;46.40;;;;;;5111106;28;20455;-67
2022/01/11 10:39:29;;;;;;;;;;;7.50;46.40;;;;;;5111269;28;19908;-71
2022/01/11 10:41:55;;;;;;;;;;;7.50;46.30;;;;;;5111407;28;19915;-71
2022/01/11 10:44:39;;;;;;;;;;;7.50;46.30;;;;;;5111115;28;20375;-68
2022/01/11 10:47:05;;;;;;;;;;;7.40;45.80;;;;;;5111225;28;19905;-72
2022/01/11 10:49:35;;;;;;;;;;;7.40;45.80;;;;;;5111161;28;20260;-72
2022/01/11 10:52:16;;;;;;;;;;;7.40;46.20;;;;;;5111063;28;19947;-72
2022/01/11 10:54:44;;;;;;;;;;;7.30;46.90;;;;;;5111075;28;19908;-71
2022/01/11 10:57:21;;;;;;;;;;;7.30;47.00;;;;;;5111135;28;19915;-72
2022/01/11 11:00:16;;;;;;;;;;;7.50;46.70;;;;;;5110830;28;19912;-70
2022/01/11 11:02:42;;;;;;;;;;;7.60;46.30;;;;;;5073130;28;20323;-67
2022/01/11 11:05:14;;;;;;;;;;;7.60;45.60;;;;;;5110639;28;19908;-72
2022/01/11 11:07:40;;;;;;;;;;;7.80;45.60;;;;;;5110715;28;20341;-67
2022/01/11 11:10:06;;;;;;;;;;;7.90;44.50;;;;;;5110358;28;19916;-69
2022/01/11 11:12:32;;;;;;;;;;;8.00;44.40;;;;;;5110682;28;19908;-63
2022/01/11 11:14:59;;;;;;;;;;;8.00;44.40;;;;;;5106048;28;19923;-61
2022/01/11 11:17:31;;;;;;;;;;;8.00;43.50;;;;;;5090525;28;20279;-72
2022/01/11 11:20:01;;;;;;;;;;;8.00;43.80;;;;;;5095125;28;19968;-62
2022/01/11 11:22:27;;;;;;;;;;;8.10;43.20;;;;;;5091978;28;19912;-70
2022/01/11 11:24:53;;;;;;;;;;;8.10;43.50;;;;;;5092991;28;20512;-63
2022/01/11 11:27:23;;;;;;;;;;;8.10;43.10;;;;;;5090368;28;19909;-68
2022/01/11 11:29:49;;;;;;;;;;;8.10;43.80;;;;;;5100021;28;19921;-67
2022/01/11 11:32:18;;;;;;;;;;;8.30;43.70;;;;;;5103657;28;19916;-70
2022/01/11 11:34:49;;;;;;;;;;;8.20;44.10;;;;;;5097746;28;20283;-65
2022/01/11 11:37:21;;;;;;;;;;;8.40;43.70;;;;;;5095202;28;19995;-60
2022/01/11 11:39:47;;;;;;;;;;;8.60;48.80;;;;;;5090822;28;19912;-73
2022/01/11 11:42:17;;;;;;;;;;;8.90;43.60;;;;;;5083525;28;19913;-72
2022/01/11 11:44:44;;;;;;;;;;;9.00;42.70;;;;;;5076421;28;20364;-74
2022/01/11 11:47:10;;;;;;;;;;;8.80;42.50;;;;;;5076489;28;19916;-66
2022/01/11 11:49:43;;;;;;;;;;;8.80;43.00;;;;;;5076624;28;19913;-70
2022/01/11 11:52:14;;;;;;;;;;;8.90;42.80;;;;;;5076224;28;20007;-68
2022/01/11 11:54:47;;;;;;;;;;;8.80;42.60;;;;;;5075733;28;19919;-63
2022/01/11 11:57:12;;;;;;;;;;;8.80;42.10;;;;;;5075964;28;19916;-62
2022/01/11 11:59:39;;;;;;;;;;;8.90;41.70;;;;;;5075654;28;19908;-63
2022/01/11 12:02:04;;;;;;;;;;;8.70;41.70;;;;;;5075877;28;19909;-68
2022/01/11 12:04:31;;;;;;;;;;;8.70;41.90;;;;;;5075690;28;20290;-62
2022/01/11 12:06:57;;;;;;;;;;;8.70;42.00;;;;;;5075777;28;19909;-61
2022/01/11 12:09:28;;;;;;;;;;;8.50;41.70;;;;;;5075473;28;20264;-62
2022/01/11 12:11:54;;;;;;;;;;;8.40;41.80;;;;;;5075453;28;19917;-68
2022/01/11 12:14:30;;;;;;;;;;;8.40;42.00;;;;;;5075391;28;19916;-67
2022/01/11 12:16:56;;;;;;;;;;;8.40;42.30;;;;;;5075448;28;20012;-65
2022/01/11 12:19:41;;;;;;;;;;;8.40;42.10;;;;;;5075045;28;19908;-64
2022/01/11 12:22:06;;;;;;;;;;;8.30;42.50;;;;;;5075046;28;19912;-63
2022/01/11 12:24:39;;;;;;;;;;;8.40;42.00;;;;;;5075291;28;20359;-68
2022/01/11 12:27:07;;;;;;;;;;;8.40;42.20;;;;;;5074997;28;19943;-68
2022/01/11 12:29:33;;;;;;;;;;;8.20;41.80;;;;;;5074796;28;19908;-66
2022/01/11 12:32:00;;;;;;;;;;;8.30;42.60;;;;;;5074828;28;19916;-65
2022/01/11 12:34:45;;;;;;;;;;;8.30;42.30;;;;;;5075011;28;19923;-68
2022/01/11 12:37:20;;;;;;;;;;;8.10;42.90;;;;;;5074931;28;19908;-64
2022/01/11 12:39:57;;;;;;;;;;;8.10;43.20;;;;;;5074949;28;19931;-67
2022/01/11 12:42:26;;;;;;;;;;;8.20;43.20;;;;;;5074911;28;20018;-62
2022/01/11 12:47:18;;;;;;;;;;;8.30;43.20;;;;;;5074694;28;19959;-63
2022/01/11 12:50:02;;;;;;;;;;;8.10;43.50;;;;;;5073882;28;19916;-64
2022/01/11 12:52:28;;;;;;;;;;;8.20;43.40;;;;;;5074059;28;19939;-63
2022/01/11 12:54:56;;;;;;;;;;;8.10;43.40;;;;;;5073238;28;19908;-70
2022/01/11 12:57:23;;;;;;;;;;;8.20;43.20;;;;;;5074040;28;19909;-67
2022/01/11 12:59:50;;;;;;;;;;;8.20;43.30;;;;;;5072789;28;19915;-64
2022/01/11 13:02:26;;;;;;;;;;;8.20;43.20;;;;;;5072993;28;19908;-63
2022/01/11 13:04:52;;;;;;;;;;;8.00;43.40;;;;;;5074435;28;19912;-65
2022/01/11 13:07:19;;;;;;;;;;;8.20;43.50;;;;;;5074484;28;19991;-60
2022/01/11 13:09:45;;;;;;;;;;;8.20;42.90;;;;;;5074367;28;19908;-68
2022/01/11 13:12:24;;;;;;;;;;;8.30;43.00;;;;;;5074348;28;20007;-64
2022/01/11 13:15:07;;;;;;;;;;;8.30;42.60;;;;;;5074290;28;19909;-60
2022/01/11 13:17:46;;;;;;;;;;;8.20;43.40;;;;;;5074434;28;20006;-62
2022/01/11 13:20:12;;;;;;;;;;;8.30;43.30;;;;;;5074389;28;19946;-64
2022/01/11 13:22:52;;;;;;;;;;;8.40;42.90;;;;;;5074250;28;20652;-66
2022/01/11 13:25:32;;;;;;;;;;;7.90;43.10;;;;;;5074386;28;19919;-59
2022/01/11 13:27:58;;;;;;;;;;;8.10;43.60;;;;;;5073961;28;19912;-60
2022/01/11 13:30:37;;;;;;;;;;;8.20;43.20;;;;;;5072643;28;19988;-59
2022/01/11 13:33:03;;;;;;;;;;;8.10;43.20;;;;;;5074118;28;19991;-59
2022/01/11 13:35:29;;;;;;;;;;;8.00;43.40;;;;;;5074147;28;19915;-60
2022/01/11 13:37:55;;;;;;;;;;;7.80;43.90;;;;;;5074367;28;20356;-70
2022/01/11 13:40:27;;;;;;;;;;;7.80;44.20;;;;;;5073958;28;19909;-62
2022/01/11 13:43:02;;;;;;;;;;;8.00;43.70;;;;;;5074015;28;19909;-62
2022/01/11 13:45:38;;;;;;;;;;;8.00;44.30;;;;;;5073382;28;19913;-65
2022/01/11 13:48:15;;;;;;;;;;;8.00;44.60;;;;;;5089952;28;20347;-65
2022/01/11 13:50:57;;;;;;;;;;;8.00;44.50;;;;;;5074251;28;19924;-66
2022/01/11 13:53:24;;;;;;;;;;;8.00;44.00;;;;;;5093737;28;20014;-61
2022/01/11 13:55:51;;;;;;;;;;;8.00;44.30;;;;;;5093224;28;19947;-66
2022/01/11 13:58:17;;;;;;;;;;;8.00;44.10;;;;;;5097616;28;19923;-63
2022/01/11 14:00:43;;;;;;;;;;;8.00;44.70;;;;;;5090864;28;19912;-63
2022/01/11 14:03:15;;;;;;;;;;;8.00;44.20;;;;;;5086359;28;19919;-64
2022/01/11 14:05:41;;;;;;;;;;;8.00;44.00;;;;;;5085519;28;19950;-67
2022/01/11 14:08:09;;;;;;;;;;;7.80;44.10;;;;;;5076385;28;19917;-63
2022/01/11 14:10:37;;;;;;;;;;;7.80;44.20;;;;;;5077115;28;20430;-68
2022/01/11 14:13:07;;;;;;;;;;;7.80;44.00;;;;;;5079754;28;19917;-64
2022/01/11 14:15:32;;;;;;;;;;;7.60;44.20;;;;;;5071887;28;19970;-62
2022/01/11 14:17:59;;;;;;;;;;;7.70;44.50;;;;;;5074308;28;19921;-64
2022/01/11 14:20:30;;;;;;;;;;;7.80;44.10;;;;;;5072054;28;19916;-63
2022/01/11 14:22:56;;;;;;;;;;;7.90;44.10;;;;;;5071752;28;20379;-63
2022/01/11 14:25:27;;;;;;;;;;;7.80;44.20;;;;;;5074485;28;19919;-62
2022/01/11 14:28:00;;;;;;;;;;;7.80;44.70;;;;;;5071679;28;19912;-62
2022/01/11 14:30:33;;;;;;;;;;;7.90;43.80;;;;;;5085915;28;19932;-62
2022/01/11 14:32:58;;;;;;;;;;;7.80;43.80;;;;;;5077091;28;19917;-62
2022/01/11 14:35:26;;;;;;;;;;;7.90;43.90;;;;;;5077550;28;19916;-66
2022/01/11 14:37:58;;;;;;;;;;;7.90;43.30;;;;;;5098787;28;19908;-63